Current Conditions
Overcast
Conditions



Pressure
1000.92 (hPa) - 29.56 (inHG)
Visibility

10.0 (km) - 6.2 (miles)
Temperature
14  °C
Temperature
8  °C
Dewpoint
67  %
 Humidity
Wind Speed
4.0  m/s
9  mph
14  km/h
8  kts
Wind Direction
N
45°
E
90°
135°
S
180°
225°
W
270°
315°
 160°

South South
East
Airport Data
ESMX
Växjö Kronoberg Airport
Metar :ESMX 011150Z AUTO 16008KT 9999 OVC150/// 14/08 Q1001
Sat 1st October 13:50 pm
Raw Metar Info
Raw METAR is the most common format in the world for the transmission of observational weather data. It is highly standardized through the International Civil Aviation Organization (ICAO), which allows it to be understood throughout most of the world.
API Info
Data Provided by
https://www.checkwx.com/weather/ESMX

Aviation Weather providing METAR, TAF, AIRMET, SIGMET and OUTLOOK Weather Reports
© Info
CSS/SVG/PHP scripts were developed by weather34 for use in the weather34 template © 2015-2022

Guide Info provided by Metar-Wikipedia